| time (UTC) | temp F | wind direction | speed knots | gust knots | rain 1hr in | rain 24hr in | rain mn in | humidity % | barometer mb |
| 20260510033105 | 77 | 146 | 0.0 | 1.7 | 0.00 | 0.07 | 0.07 | 79 | 1011.3 |
| 20260510031601 | 78 | 146 | 0.0 | 1.7 | 0.00 | 0.07 | 0.07 | 78 | 1011.1 |
| 20260510030109 | 78 | 109 | 0.0 | 0.9 | 0.00 | 0.07 | 0.07 | 78 | 1011.0 |
| 20260510024600 | 79 | 104 | 0.0 | 1.7 | 0.00 | 0.07 | 0.07 | 78 | 1010.9 |
| 20260510023057 | 80 | 136 | 0.0 | 3.5 | 0.00 | 0.07 | 0.07 | 77 | 1010.5 |
| 20260510021603 | 80 | 134 | 0.0 | 2.6 | 0.00 | 0.07 | 0.07 | 75 | 1010.3 |
| 20260510020056 | 81 | 103 | 0.9 | 3.5 | 0.00 | 0.07 | 0.07 | 73 | 1010.0 |
| 20260510014601 | 81 | 126 | 0.0 | 3.5 | 0.00 | 0.07 | 0.07 | 71 | 1009.9 |
| 20260510013112 | 82 | 157 | 0.0 | 1.7 | 0.00 | 0.07 | 0.07 | 69 | 1009.8 |
| 20260510011554 | 83 | 157 | 0.0 | 1.7 | 0.00 | 0.07 | 0.07 | 67 | 1009.7 |
| 20260510010054 | 84 | 168 | 0.0 | 5.2 | 0.00 | 0.07 | 0.07 | 64 | 1009.6 |
| 20260510004552 | 85 | 155 | 0.0 | 2.6 | 0.00 | 0.07 | 0.07 | 63 | 1009.5 |
| 20260510003103 | 85 | 115 | 0.9 | 6.1 | 0.00 | 0.07 | 0.07 | 62 | 1009.3 |
| 20260510001552 | 86 | 141 | 0.9 | 4.3 | 0.00 | 0.07 | 0.07 | 56 | 1009.2 |
| 20260510000111 | 86 | 85 | 0.9 | 2.6 | 0.00 | 0.07 | 0.07 | 53 | 1009.1 |
| 20260509234550 | 86 | 168 | 0.9 | 3.5 | 0.00 | 0.07 | 0.07 | 52 | 1009.0 |
| 20260509233049 | 86 | 113 | 0.0 | 7.0 | 0.00 | 0.07 | 0.07 | 52 | 1008.9 |
| 20260509231550 | 86 | 58 | 0.9 | 4.3 | 0.00 | 0.07 | 0.07 | 51 | 1008.9 |
| 20260509230049 | 86 | 60 | 0.9 | 6.1 | 0.00 | 0.07 | 0.07 | 51 | 1008.9 |
| 20260509224546 | 86 | 82 | 0.9 | 3.5 | 0.00 | 0.07 | 0.07 | 52 | 1008.9 |
| 20260509223046 | 87 | 64 | 1.7 | 4.3 | 0.00 | 0.07 | 0.07 | 52 | 1008.9 |
| 20260509221548 | 87 | 104 | 0.9 | 4.3 | 0.00 | 0.07 | 0.07 | 53 | 1008.9 |
| 20260509220045 | 87 | 134 | 0.0 | 6.1 | 0.00 | 0.07 | 0.07 | 56 | 1008.9 |
| 20260509214557 | 87 | 76 | 0.0 | 7.0 | 0.00 | 0.07 | 0.07 | 53 | 1008.9 |
| 20260509213040 | 87 | 82 | 0.0 | 7.8 | 0.00 | 0.07 | 0.07 | 54 | 1009.2 |
| 20260509211539 | 88 | 59 | 1.7 | 7.0 | 0.00 | 0.07 | 0.07 | 53 | 1009.4 |
| 20260509210045 | 87 | 73 | 0.9 | 5.2 | 0.00 | 0.07 | 0.07 | 48 | 1009.6 |
| 20260509204536 | 87 | 120 | 0.0 | 4.3 | 0.00 | 0.07 | 0.07 | 48 | 1009.7 |
| 20260509203039 | 87 | 78 | 1.7 | 6.1 | 0.00 | 0.07 | 0.07 | 48 | 1009.9 |
| 20260509201533 | 85 | 101 | 0.9 | 10.4 | 0.00 | 0.07 | 0.07 | 51 | 1010.0 |
| 20260509200038 | 83 | 84 | 4.3 | 15.6 | 0.00 | 0.07 | 0.07 | 49 | 1010.7 |
| 20260509194544 | 84 | 78 | 1.7 | 8.7 | 0.00 | 0.07 | 0.07 | 54 | 1010.8 |
| 20260509193035 | 91 | 62 | 0.9 | 9.6 | 0.00 | 0.07 | 0.07 | 50 | 1010.6 |
| 20260509191524 | 90 | 288 | 1.7 | 8.7 | 0.00 | 0.07 | 0.07 | 57 | 1010.4 |
| 20260509190022 | 89 | 347 | 1.7 | 6.1 | 0.00 | 0.07 | 0.07 | 59 | 1010.5 |
| 20260509184520 | 88 | 340 | 0.9 | 6.1 | 0.00 | 0.07 | 0.07 | 62 | 1010.8 |
| 20260509183016 | 87 | 350 | 0.0 | 3.5 | 0.00 | 0.07 | 0.07 | 64 | 1011.0 |
| 20260509181515 | 87 | 275 | 0.9 | 2.6 | 0.00 | 0.07 | 0.07 | 68 | 1011.2 |
| 20260509180014 | 88 | 280 | 0.0 | 4.3 | 0.00 | 0.07 | 0.07 | 68 | 1011.3 |
| 20260509174530 | 87 | 309 | 0.9 | 4.3 | 0.00 | 0.07 | 0.07 | 71 | 1011.3 |
| 20260509173009 | 87 | 150 | 0.9 | 5.2 | 0.00 | 0.07 | 0.07 | 70 | 1011.9 |
| 20260509171507 | 86 | 281 | 0.0 | 3.5 | 0.00 | 0.07 | 0.07 | 73 | 1012.0 |
| 20260509170003 | 85 | 284 | 0.9 | 4.3 | 0.00 | 0.07 | 0.07 | 75 | 1011.9 |
| 20260509164559 | 83 | 259 | 0.0 | 3.5 | 0.00 | 0.07 | 0.07 | 78 | 1011.9 |
| 20260509163101 | 82 | 225 | 0.0 | 3.5 | 0.00 | 0.07 | 0.07 | 81 | 1012.1 |
| 20260509161550 | 80 | 205 | 0.9 | 4.3 | 0.00 | 0.07 | 0.07 | 85 | 1012.0 |
| 20260509160047 | 77 | 213 | 0.9 | 5.2 | 0.00 | 0.07 | 0.07 | 91 | 1012.1 |
| 20260509154541 | 75 | 225 | 0.0 | 5.2 | 0.00 | 0.07 | 0.07 | 96 | 1012.3 |
| 20260509153048 | 73 | 272 | 0.9 | 7.0 | 0.00 | 0.07 | 0.07 | 97 | 1012.1 |
| 20260509151540 | 73 | 179 | 1.7 | 5.2 | 0.00 | 0.07 | 0.07 | 98 | 1012.0 |
| 20260509150041 | 73 | 208 | 0.0 | 3.5 | 0.00 | 0.07 | 0.07 | 98 | 1012.0 |
| 20260509144535 | 73 | 215 | 0.9 | 3.5 | 0.00 | 0.07 | 0.07 | 98 | 1011.9 |
| 20260509143037 | 72 | 192 | 0.0 | 3.5 | 0.00 | 0.07 | 0.07 | 98 | 1011.8 |
| 20260509141534 | 72 | 184 | 0.9 | 7.8 | 0.00 | 0.07 | 0.07 | 98 | 1011.4 |
| 20260509140038 | 72 | 71 | 0.9 | 2.6 | 0.00 | 0.07 | 0.07 | 98 | 1011.2 |
| 20260509134532 | 72 | 336 | 0.0 | 2.6 | 0.00 | 0.07 | 0.07 | 98 | 1011.3 |
| 20260509133030 | 72 | 341 | 0.0 | 0.9 | 0.00 | 0.07 | 0.07 | 99 | 1011.6 |
| 20260509131531 | 70 | 342 | 0.0 | 2.6 | 0.00 | 0.07 | 0.07 | 98 | 1012.1 |
| 20260509130029 | 70 | 342 | 0.0 | 0.0 | 0.00 | 0.07 | 0.07 | 98 | 1012.2 |
| 20260509124528 | 70 | 343 | 0.0 | 0.0 | 0.00 | 0.07 | 0.07 | 98 | 1011.8 |
| 20260509123028 | 70 | 342 | 0.0 | 0.0 | 0.00 | 0.07 | 0.07 | 98 | 1011.5 |
| 20260509121526 | 70 | 342 | 0.0 | 0.0 | 0.00 | 0.07 | 0.07 | 97 | 1011.5 |
| 20260509120030 | 70 | 343 | 0.0 | 2.6 | 0.00 | 0.07 | 0.07 | 97 | 1011.3 |
| 20260509114525 | 70 | 343 | 0.0 | 2.6 | 0.00 | 0.07 | 0.07 | 97 | 1011.8 |
| 20260509113022 | 71 | 343 | 0.0 | 2.6 | 0.06 | 0.07 | 0.07 | 97 | 1012.3 |
| 20260509111523 | 71 | 341 | 0.0 | 3.5 | 0.07 | 0.07 | 0.07 | 97 | 1012.6 |
| 20260509110025 | 71 | 336 | 0.0 | 0.9 | 0.07 | 0.07 | 0.07 | 97 | 1012.6 |
| 20260509104521 | 71 | 336 | 0.0 | 1.7 | 0.07 | 0.07 | 0.07 | 97 | 1012.9 |
| 20260509103021 | 71 | 336 | 0.0 | 2.6 | 0.00 | 0.00 | 0.00 | 97 | 1012.8 |
| 20260509101520 | 71 | 13 | 0.0 | 1.7 | 0.00 | 0.00 | 0.00 | 97 | 1012.8 |
| 20260509100017 | 71 | 65 | 0.0 | 0.9 | 0.00 | 0.00 | 0.00 | 97 | 1012.0 |
| 20260509094516 | 71 | 65 | 0.0 | 0.0 | 0.00 | 0.00 | 0.00 | 96 | 1011.3 |
| 20260509093017 | 71 | 65 | 0.0 | 0.9 | 0.00 | 0.00 | 0.00 | 96 | 1011.4 |
| 20260509091515 | 71 | 65 | 0.0 | 1.7 | 0.00 | 0.00 | 0.00 | 96 | 1011.2 |
| 20260509090016 | 71 | 65 | 0.0 | 1.7 | 0.00 | 0.00 | 0.00 | 96 | 1011.2 |
| 20260509084513 | 71 | 65 | 0.0 | 0.9 | 0.00 | 0.00 | 0.00 | 96 | 1011.4 |
| 20260509083016 | 71 | 65 | 0.0 | 1.7 | 0.00 | 0.00 | 0.00 | 96 | 1011.7 |
| 20260509081512 | 71 | 65 | 0.0 | 0.0 | 0.00 | 0.00 | 0.00 | 95 | 1011.9 |
| 20260509080014 | 71 | 65 | 0.0 | 1.7 | 0.00 | 0.00 | 0.00 | 95 | 1011.5 |
| 20260509074511 | 71 | 65 | 0.0 | 0.0 | 0.00 | 0.00 | 0.00 | 95 | 1011.9 |
| 20260509073010 | 71 | 65 | 0.0 | 0.0 | 0.00 | 0.00 | 0.00 | 94 | 1011.8 |
| 20260509071510 | 71 | 65 | 0.0 | 0.0 | 0.00 | 0.00 | 0.00 | 94 | 1012.2 |
| 20260509070008 | 71 | 64 | 0.0 | 1.7 | 0.00 | 0.00 | 0.00 | 93 | 1012.2 |
| 20260509064505 | 72 | 64 | 0.0 | 2.6 | 0.00 | 0.00 | 0.00 | 93 | 1011.7 |
| 20260509063004 | 72 | 132 | 0.0 | 2.6 | 0.00 | 0.00 | 0.00 | 92 | 1011.7 |
| 20260509061502 | 72 | 170 | 0.0 | 2.6 | 0.00 | 0.00 | 0.00 | 92 | 1011.7 |
| 20260509060003 | 72 | 146 | 0.9 | 5.2 | 0.00 | 0.00 | 0.00 | 92 | 1011.2 |
| 20260509054502 | 72 | 162 | 0.0 | 7.0 | 0.00 | 0.00 | 0.00 | 91 | 1011.5 |
| 20260509053104 | 73 | 140 | 0.0 | 3.5 | 0.00 | 0.00 | 0.00 | 91 | 1011.2 |
| 20260509051603 | 73 | 173 | 0.9 | 2.6 | 0.00 | 0.00 | 0.00 | 90 | 1010.8 |
| 20260509050055 | 73 | 178 | 0.0 | 3.5 | 0.00 | 0.00 | 0.00 | 90 | 1010.9 |
| 20260509044553 | 73 | 57 | 0.0 | 3.5 | 0.00 | 0.00 | 0.00 | 90 | 1011.1 |
| 20260509043059 | 73 | 126 | 0.9 | 3.5 | 0.00 | 0.00 | 0.00 | 90 | 1011.0 |
| 20260509041552 | 73 | 163 | 0.0 | 0.9 | 0.00 | 0.00 | 0.00 | 90 | 1011.4 |
| 20260509040052 | 73 | 143 | 0.0 | 1.7 | 0.00 | 0.00 | 0.00 | 90 | 1011.3 |
| 20260509034552 | 73 | 184 | 0.0 | 3.5 | 0.00 | 0.00 | 0.00 | 90 | 1011.2 |